sensor_id;sensor_type;location;lat;lon;timestamp;pressure;altitude;pressure_sealevel;temperature;humidity
17311;BME280;8773;43.300;0.394;2023-03-20T00:02:01;100498.81;;;8.31;73.14
17311;BME280;8773;43.300;0.394;2023-03-20T00:04:30;100494.78;;;8.26;72.97
17311;BME280;8773;43.300;0.394;2023-03-20T00:06:58;100480.88;;;8.22;72.96
17311;BME280;8773;43.300;0.394;2023-03-20T00:09:26;100473.38;;;8.27;72.89
17311;BME280;8773;43.300;0.394;2023-03-20T00:11:54;100475.84;;;8.30;72.93
17311;BME280;8773;43.300;0.394;2023-03-20T00:14:23;100469.03;;;8.26;73.17
17311;BME280;8773;43.300;0.394;2023-03-20T00:16:53;100471.34;;;8.31;72.54
17311;BME280;8773;43.300;0.394;2023-03-20T00:19:22;100468.19;;;8.26;73.21
17311;BME280;8773;43.300;0.394;2023-03-20T00:21:53;100468.31;;;8.13;72.96
17311;BME280;8773;43.300;0.394;2023-03-20T00:24:21;100463.84;;;8.14;73.42
17311;BME280;8773;43.300;0.394;2023-03-20T00:26:51;100457.19;;;8.08;73.19
17311;BME280;8773;43.300;0.394;2023-03-20T00:29:22;100459.00;;;8.07;72.73
17311;BME280;8773;43.300;0.394;2023-03-20T00:31:50;100461.53;;;8.09;72.88
17311;BME280;8773;43.300;0.394;2023-03-20T00:34:22;100466.13;;;8.07;72.95
17311;BME280;8773;43.300;0.394;2023-03-20T00:36:52;100473.28;;;7.73;74.52
17311;BME280;8773;43.300;0.394;2023-03-20T00:39:21;100470.94;;;7.35;76.00
17311;BME280;8773;43.300;0.394;2023-03-20T00:41:50;100484.88;;;7.61;75.12
17311;BME280;8773;43.300;0.394;2023-03-20T00:44:21;100485.25;;;7.78;74.27
17311;BME280;8773;43.300;0.394;2023-03-20T00:46:53;100483.31;;;7.92;72.65
17311;BME280;8773;43.300;0.394;2023-03-20T00:49:25;100482.97;;;7.96;73.06
17311;BME280;8773;43.300;0.394;2023-03-20T00:51:54;100485.03;;;8.04;73.21
17311;BME280;8773;43.300;0.394;2023-03-20T00:54:22;100483.53;;;8.11;72.12
17311;BME280;8773;43.300;0.394;2023-03-20T00:56:54;100485.97;;;8.14;71.94
17311;BME280;8773;43.300;0.394;2023-03-20T00:59:26;100485.47;;;8.09;72.11
17311;BME280;8773;43.300;0.394;2023-03-20T01:01:55;100476.53;;;8.10;72.13
17311;BME280;8773;43.300;0.394;2023-03-20T01:04:34;100475.81;;;8.08;71.90
17311;BME280;8773;43.300;0.394;2023-03-20T01:07:03;100470.50;;;7.97;72.39
17311;BME280;8773;43.300;0.394;2023-03-20T01:09:32;100469.53;;;7.75;72.94
17311;BME280;8773;43.300;0.394;2023-03-20T01:12:00;100471.00;;;7.80;73.32
17311;BME280;8773;43.300;0.394;2023-03-20T01:14:29;100469.53;;;7.75;73.08
17311;BME280;8773;43.300;0.394;2023-03-20T01:16:57;100462.16;;;7.79;73.27
17311;BME280;8773;43.300;0.394;2023-03-20T01:19:26;100468.44;;;7.78;73.33
17311;BME280;8773;43.300;0.394;2023-03-20T01:21:55;100473.53;;;7.81;72.77
17311;BME280;8773;43.300;0.394;2023-03-20T01:24:23;100475.22;;;7.82;71.75
17311;BME280;8773;43.300;0.394;2023-03-20T01:26:51;100481.50;;;7.92;71.34
17311;BME280;8773;43.300;0.394;2023-03-20T01:29:22;100475.09;;;7.95;71.63
17311;BME280;8773;43.300;0.394;2023-03-20T01:31:51;100490.09;;;7.96;71.72
17311;BME280;8773;43.300;0.394;2023-03-20T01:34:19;100481.41;;;7.94;71.87
17311;BME280;8773;43.300;0.394;2023-03-20T01:36:50;100487.44;;;7.96;71.47
17311;BME280;8773;43.300;0.394;2023-03-20T01:39:20;100487.91;;;7.90;71.16
17311;BME280;8773;43.300;0.394;2023-03-20T01:41:50;100474.38;;;7.82;71.45
17311;BME280;8773;43.300;0.394;2023-03-20T01:44:22;100476.53;;;7.76;71.18
17311;BME280;8773;43.300;0.394;2023-03-20T01:46:51;100474.97;;;7.85;70.82
17311;BME280;8773;43.300;0.394;2023-03-20T01:52:26;100462.41;;;7.76;71.19
17311;BME280;8773;43.300;0.394;2023-03-20T01:54:54;100472.69;;;7.58;71.07
17311;BME280;8773;43.300;0.394;2023-03-20T01:57:24;100472.88;;;7.44;71.74
17311;BME280;8773;43.300;0.394;2023-03-20T01:59:55;100468.78;;;7.40;72.00
17311;BME280;8773;43.300;0.394;2023-03-20T02:02:29;100464.31;;;7.40;72.49
17311;BME280;8773;43.300;0.394;2023-03-20T02:05:02;100463.69;;;7.37;71.68
17311;BME280;8773;43.300;0.394;2023-03-20T02:07:33;100469.47;;;7.31;72.94
17311;BME280;8773;43.300;0.394;2023-03-20T02:10:03;100468.72;;;7.29;72.70
17311;BME280;8773;43.300;0.394;2023-03-20T02:12:33;100458.09;;;7.18;73.11
17311;BME280;8773;43.300;0.394;2023-03-20T02:15:02;100455.78;;;7.13;72.61
17311;BME280;8773;43.300;0.394;2023-03-20T02:17:31;100458.09;;;7.18;72.60
17311;BME280;8773;43.300;0.394;2023-03-20T02:20:06;100463.56;;;6.92;73.37
17311;BME280;8773;43.300;0.394;2023-03-20T02:26:18;100454.00;;;6.90;74.21
17311;BME280;8773;43.300;0.394;2023-03-20T02:32:05;100460.91;;;6.92;74.31
17311;BME280;8773;43.300;0.394;2023-03-20T02:35:03;100460.91;;;6.92;74.25
17311;BME280;8773;43.300;0.394;2023-03-20T02:37:52;100464.19;;;6.96;74.01
17311;BME280;8773;43.300;0.394;2023-03-20T02:40:31;100458.41;;;7.02;73.42
17311;BME280;8773;43.300;0.394;2023-03-20T02:43:05;100457.56;;;7.01;72.97
17311;BME280;8773;43.300;0.394;2023-03-20T02:45:42;100460.72;;;7.06;72.80
17311;BME280;8773;43.300;0.394;2023-03-20T02:48:22;100463.38;;;7.06;73.26
17311;BME280;8773;43.300;0.394;2023-03-20T02:50:58;100461.25;;;7.34;73.08
17311;BME280;8773;43.300;0.394;2023-03-20T02:53:36;100459.97;;;7.51;72.72
17311;BME280;8773;43.300;0.394;2023-03-20T02:56:11;100434.50;;;7.48;73.05
17311;BME280;8773;43.300;0.394;2023-03-20T02:58:47;100441.47;;;7.38;72.31
17311;BME280;8773;43.300;0.394;2023-03-20T03:01:20;100449.69;;;7.46;72.91
17311;BME280;8773;43.300;0.394;2023-03-20T03:03:54;100437.75;;;7.52;73.20
17311;BME280;8773;43.300;0.394;2023-03-20T03:06:26;100440.16;;;7.66;73.33
17311;BME280;8773;43.300;0.394;2023-03-20T03:09:00;100439.22;;;7.78;73.03
17311;BME280;8773;43.300;0.394;2023-03-20T03:11:29;100433.91;;;7.89;71.76
17311;BME280;8773;43.300;0.394;2023-03-20T03:14:01;100422.16;;;8.03;71.44
17311;BME280;8773;43.300;0.394;2023-03-20T03:16:32;100426.75;;;8.01;71.32
17311;BME280;8773;43.300;0.394;2023-03-20T03:19:07;100422.91;;;7.60;72.78
17311;BME280;8773;43.300;0.394;2023-03-20T03:21:36;100420.00;;;7.74;72.92
17311;BME280;8773;43.300;0.394;2023-03-20T03:24:20;100414.31;;;7.79;72.41
17311;BME280;8773;43.300;0.394;2023-03-20T03:27:10;100413.38;;;7.58;72.34
17311;BME280;8773;43.300;0.394;2023-03-20T03:29:40;100408.28;;;7.55;72.88
17311;BME280;8773;43.300;0.394;2023-03-20T03:32:21;100406.97;;;7.60;72.39
17311;BME280;8773;43.300;0.394;2023-03-20T03:34:50;100409.00;;;7.68;72.25
17311;BME280;8773;43.300;0.394;2023-03-20T03:37:24;100405.72;;;7.31;72.66
17311;BME280;8773;43.300;0.394;2023-03-20T03:40:02;100411.94;;;6.96;73.82
17311;BME280;8773;43.300;0.394;2023-03-20T03:42:36;100421.78;;;6.83;74.89
17311;BME280;8773;43.300;0.394;2023-03-20T03:45:09;100427.44;;;7.25;74.12
17311;BME280;8773;43.300;0.394;2023-03-20T03:47:43;100427.47;;;7.47;72.75
17311;BME280;8773;43.300;0.394;2023-03-20T03:50:15;100430.88;;;7.71;72.90
17311;BME280;8773;43.300;0.394;2023-03-20T03:52:45;100424.59;;;7.84;72.28
17311;BME280;8773;43.300;0.394;2023-03-20T03:55:20;100420.00;;;7.97;71.82
17311;BME280;8773;43.300;0.394;2023-03-20T03:57:52;100415.28;;;8.00;71.25
17311;BME280;8773;43.300;0.394;2023-03-20T04:00:23;100404.03;;;7.97;71.81
17311;BME280;8773;43.300;0.394;2023-03-20T04:02:54;100404.16;;;7.95;71.28
17311;BME280;8773;43.300;0.394;2023-03-20T04:05:25;100417.47;;;7.95;71.87
17311;BME280;8773;43.300;0.394;2023-03-20T04:07:58;100412.75;;;7.99;71.32
17311;BME280;8773;43.300;0.394;2023-03-20T04:10:27;100421.56;;;7.88;71.35
17311;BME280;8773;43.300;0.394;2023-03-20T04:12:55;100421.44;;;8.01;71.03
17311;BME280;8773;43.300;0.394;2023-03-20T04:15:23;100419.94;;;8.19;70.83
17311;BME280;8773;43.300;0.394;2023-03-20T04:17:53;100419.94;;;8.19;70.83
17311;BME280;8773;43.300;0.394;2023-03-20T04:20:21;100408.56;;;8.28;70.44
17311;BME280;8773;43.300;0.394;2023-03-20T04:22:49;100398.16;;;8.48;70.32
17311;BME280;8773;43.300;0.394;2023-03-20T04:25:19;100390.88;;;8.50;69.60
17311;BME280;8773;43.300;0.394;2023-03-20T04:27:49;100380.53;;;8.24;70.19
17311;BME280;8773;43.300;0.394;2023-03-20T04:30:17;100381.63;;;8.22;70.30
17311;BME280;8773;43.300;0.394;2023-03-20T04:32:46;100375.94;;;8.15;70.46
17311;BME280;8773;43.300;0.394;2023-03-20T04:35:14;100369.63;;;8.27;69.84
17311;BME280;8773;43.300;0.394;2023-03-20T04:37:42;100361.31;;;8.09;70.86
17311;BME280;8773;43.300;0.394;2023-03-20T04:40:11;100352.06;;;7.93;71.80
17311;BME280;8773;43.300;0.394;2023-03-20T04:42:39;100345.06;;;7.81;72.37
17311;BME280;8773;43.300;0.394;2023-03-20T04:45:09;100339.38;;;7.96;71.67
17311;BME280;8773;43.300;0.394;2023-03-20T04:47:37;100338.31;;;7.88;71.90
17311;BME280;8773;43.300;0.394;2023-03-20T04:50:06;100336.50;;;7.88;71.90
17311;BME280;8773;43.300;0.394;2023-03-20T04:52:34;100337.34;;;7.89;71.34
17311;BME280;8773;43.300;0.394;2023-03-20T04:55:02;100342.41;;;7.81;72.47
17311;BME280;8773;43.300;0.394;2023-03-20T04:57:31;100343.88;;;7.85;72.39
17311;BME280;8773;43.300;0.394;2023-03-20T04:59:59;100338.53;;;7.96;71.46
17311;BME280;8773;43.300;0.394;2023-03-20T05:02:28;100340.28;;;8.06;71.51
17311;BME280;8773;43.300;0.394;2023-03-20T05:04:56;100340.03;;;8.09;70.67
17311;BME280;8773;43.300;0.394;2023-03-20T05:07:24;100341.91;;;7.98;71.33
17311;BME280;8773;43.300;0.394;2023-03-20T05:09:52;100338.53;;;7.96;71.25
17311;BME280;8773;43.300;0.394;2023-03-20T05:12:20;100337.06;;;8.03;70.87
17311;BME280;8773;43.300;0.394;2023-03-20T05:14:48;100336.94;;;8.04;71.23
17311;BME280;8773;43.300;0.394;2023-03-20T05:17:16;100337.97;;;8.13;71.49
17311;BME280;8773;43.300;0.394;2023-03-20T05:19:46;100337.59;;;8.18;70.71
17311;BME280;8773;43.300;0.394;2023-03-20T05:22:15;100337.38;;;8.09;71.35
17311;BME280;8773;43.300;0.394;2023-03-20T05:24:43;100346.56;;;8.17;71.28
17311;BME280;8773;43.300;0.394;2023-03-20T05:27:12;100341.88;;;8.09;71.23
17311;BME280;8773;43.300;0.394;2023-03-20T05:29:39;100342.09;;;8.17;70.97
17311;BME280;8773;43.300;0.394;2023-03-20T05:32:07;100334.56;;;8.33;70.25
17311;BME280;8773;43.300;0.394;2023-03-20T05:34:36;100337.97;;;8.35;70.17
17311;BME280;8773;43.300;0.394;2023-03-20T05:37:05;100344.34;;;8.44;69.79
17311;BME280;8773;43.300;0.394;2023-03-20T05:39:33;100341.00;;;8.52;69.66
17311;BME280;8773;43.300;0.394;2023-03-20T05:42:01;100340.03;;;8.53;69.20
17311;BME280;8773;43.300;0.394;2023-03-20T05:44:29;100331.81;;;8.56;69.19
17311;BME280;8773;43.300;0.394;2023-03-20T05:47:00;100332.91;;;8.53;69.04
17311;BME280;8773;43.300;0.394;2023-03-20T05:49:28;100332.34;;;8.50;69.13
17311;BME280;8773;43.300;0.394;2023-03-20T05:51:56;100340.31;;;8.50;68.91
17311;BME280;8773;43.300;0.394;2023-03-20T05:54:25;100331.75;;;8.46;69.15
17311;BME280;8773;43.300;0.394;2023-03-20T05:56:53;100334.53;;;8.45;68.86
17311;BME280;8773;43.300;0.394;2023-03-20T05:59:24;100342.56;;;8.33;69.66
17311;BME280;8773;43.300;0.394;2023-03-20T06:01:52;100343.66;;;8.20;70.07
17311;BME280;8773;43.300;0.394;2023-03-20T06:04:20;100341.97;;;8.19;69.89
17311;BME280;8773;43.300;0.394;2023-03-20T06:06:48;100343.44;;;8.11;70.18
17311;BME280;8773;43.300;0.394;2023-03-20T06:09:16;100344.28;;;8.12;69.79
17311;BME280;8773;43.300;0.394;2023-03-20T06:11:46;100342.72;;;8.09;70.52
17311;BME280;8773;43.300;0.394;2023-03-20T06:14:14;100341.75;;;8.10;69.73
17311;BME280;8773;43.300;0.394;2023-03-20T06:16:42;100336.81;;;8.06;69.88
17311;BME280;8773;43.300;0.394;2023-03-20T06:19:10;100339.31;;;8.07;70.24
17311;BME280;8773;43.300;0.394;2023-03-20T06:21:38;100340.03;;;8.09;70.38
17311;BME280;8773;43.300;0.394;2023-03-20T06:24:06;100347.84;;;8.01;70.42
17311;BME280;8773;43.300;0.394;2023-03-20T06:26:34;100350.38;;;8.03;70.62
17311;BME280;8773;43.300;0.394;2023-03-20T06:29:04;100354.59;;;8.05;70.51
17311;BME280;8773;43.300;0.394;2023-03-20T06:31:32;100359.00;;;8.16;70.47
17311;BME280;8773;43.300;0.394;2023-03-20T06:34:00;100360.34;;;8.22;69.94
17311;BME280;8773;43.300;0.394;2023-03-20T06:36:28;100363.72;;;8.24;69.83
17311;BME280;8773;43.300;0.394;2023-03-20T06:38:56;100369.75;;;8.26;69.92
17311;BME280;8773;43.300;0.394;2023-03-20T06:41:24;100371.22;;;8.30;69.66
17311;BME280;8773;43.300;0.394;2023-03-20T06:44:00;100367.72;;;8.29;70.04
17311;BME280;8773;43.300;0.394;2023-03-20T06:46:29;100378.22;;;8.42;69.77
17311;BME280;8773;43.300;0.394;2023-03-20T06:48:58;100375.81;;;8.60;69.03
17311;BME280;8773;43.300;0.394;2023-03-20T06:51:26;100372.16;;;8.72;68.73
17311;BME280;8773;43.300;0.394;2023-03-20T06:53:55;100372.09;;;8.83;68.46
17311;BME280;8773;43.300;0.394;2023-03-20T06:56:23;100366.97;;;8.91;68.25
17311;BME280;8773;43.300;0.394;2023-03-20T06:58:51;100369.94;;;8.98;67.67
17311;BME280;8773;43.300;0.394;2023-03-20T07:01:20;100362.06;;;8.96;68.11
17311;BME280;8773;43.300;0.394;2023-03-20T07:03:50;100359.59;;;9.04;67.52
17311;BME280;8773;43.300;0.394;2023-03-20T07:06:19;100356.81;;;9.06;67.66
17311;BME280;8773;43.300;0.394;2023-03-20T07:08:47;100355.44;;;9.12;67.46
17311;BME280;8773;43.300;0.394;2023-03-20T07:11:15;100344.50;;;8.84;67.95
17311;BME280;8773;43.300;0.394;2023-03-20T07:13:44;100355.56;;;9.10;67.70
17311;BME280;8773;43.300;0.394;2023-03-20T07:16:15;100357.25;;;9.32;67.62
17311;BME280;8773;43.300;0.394;2023-03-20T07:18:43;100349.50;;;9.59;66.75
17311;BME280;8773;43.300;0.394;2023-03-20T07:21:17;100359.69;;;9.85;66.08
17311;BME280;8773;43.300;0.394;2023-03-20T07:23:46;100351.91;;;10.02;65.42
17311;BME280;8773;43.300;0.394;2023-03-20T07:26:14;100358.44;;;10.58;64.37
17311;BME280;8773;43.300;0.394;2023-03-20T07:28:42;100347.06;;;11.22;61.70
17311;BME280;8773;43.300;0.394;2023-03-20T07:31:18;100350.66;;;11.50;61.24
17311;BME280;8773;43.300;0.394;2023-03-20T07:33:46;100335.66;;;11.66;60.74
17311;BME280;8773;43.300;0.394;2023-03-20T07:36:15;100342.91;;;11.84;59.21
17311;BME280;8773;43.300;0.394;2023-03-20T07:38:43;100342.78;;;12.03;58.71
17311;BME280;8773;43.300;0.394;2023-03-20T07:41:11;100342.22;;;11.99;58.37
17311;BME280;8773;43.300;0.394;2023-03-20T07:43:39;100345.41;;;12.30;58.05
17311;BME280;8773;43.300;0.394;2023-03-20T07:46:10;100340.19;;;12.47;57.44
17311;BME280;8773;43.300;0.394;2023-03-20T07:48:38;100341.31;;;12.54;57.21
17311;BME280;8773;43.300;0.394;2023-03-20T07:51:07;100335.38;;;12.50;57.75
17311;BME280;8773;43.300;0.394;2023-03-20T07:53:36;100338.25;;;12.03;58.82
17311;BME280;8773;43.300;0.394;2023-03-20T07:56:04;100326.25;;;11.90;58.71
17311;BME280;8773;43.300;0.394;2023-03-20T07:58:33;100337.84;;;11.81;58.82
17311;BME280;8773;43.300;0.394;2023-03-20T08:01:01;100332.75;;;11.87;60.22
17311;BME280;8773;43.300;0.394;2023-03-20T08:03:30;100338.09;;;12.05;59.01
17311;BME280;8773;43.300;0.394;2023-03-20T08:05:59;100342.56;;;12.14;58.69
17311;BME280;8773;43.300;0.394;2023-03-20T08:08:29;100351.38;;;12.24;58.98
17311;BME280;8773;43.300;0.394;2023-03-20T08:10:59;100348.53;;;12.43;58.15
17311;BME280;8773;43.300;0.394;2023-03-20T08:13:27;100348.66;;;12.52;58.62
17311;BME280;8773;43.300;0.394;2023-03-20T08:15:55;100348.91;;;12.49;57.97
17311;BME280;8773;43.300;0.394;2023-03-20T08:18:23;100357.94;;;12.48;58.64
17311;BME280;8773;43.300;0.394;2023-03-20T08:20:51;100350.84;;;12.38;58.10
17311;BME280;8773;43.300;0.394;2023-03-20T08:23:19;100351.91;;;12.28;57.87
17311;BME280;8773;43.300;0.394;2023-03-20T08:25:48;100356.03;;;12.40;58.47
17311;BME280;8773;43.300;0.394;2023-03-20T08:28:18;100336.00;;;12.44;57.51
17311;BME280;8773;43.300;0.394;2023-03-20T08:30:46;100346.84;;;12.42;58.12
17311;BME280;8773;43.300;0.394;2023-03-20T08:33:15;100341.56;;;12.51;57.65
17311;BME280;8773;43.300;0.394;2023-03-20T08:35:43;100340.16;;;12.74;56.77
17311;BME280;8773;43.300;0.394;2023-03-20T08:38:21;100343.09;;;12.89;57.78
17311;BME280;8773;43.300;0.394;2023-03-20T08:40:49;100335.44;;;12.94;56.80
17311;BME280;8773;43.300;0.394;2023-03-20T08:43:19;100339.41;;;12.90;56.49
17311;BME280;8773;43.300;0.394;2023-03-20T08:45:47;100325.41;;;12.96;56.18
17311;BME280;8773;43.300;0.394;2023-03-20T08:48:15;100330.34;;;12.83;56.18
17311;BME280;8773;43.300;0.394;2023-03-20T08:50:43;100331.94;;;12.22;56.81
17311;BME280;8773;43.300;0.394;2023-03-20T08:53:11;100329.78;;;12.43;56.96
17311;BME280;8773;43.300;0.394;2023-03-20T08:55:39;100329.97;;;12.60;57.14
17311;BME280;8773;43.300;0.394;2023-03-20T08:58:08;100325.50;;;12.51;57.30
17311;BME280;8773;43.300;0.394;2023-03-20T09:00:37;100320.97;;;12.87;56.59
17311;BME280;8773;43.300;0.394;2023-03-20T09:03:05;100320.25;;;13.02;56.37
17311;BME280;8773;43.300;0.394;2023-03-20T09:05:35;100319.31;;;13.12;56.66
17311;BME280;8773;43.300;0.394;2023-03-20T09:08:04;100312.53;;;13.33;55.63
17311;BME280;8773;43.300;0.394;2023-03-20T09:10:32;100318.44;;;13.37;55.47
17311;BME280;8773;43.300;0.394;2023-03-20T09:13:01;100309.91;;;13.41;54.97
17311;BME280;8773;43.300;0.394;2023-03-20T09:15:50;100317.41;;;13.04;56.06
17311;BME280;8773;43.300;0.394;2023-03-20T09:18:19;100317.59;;;13.36;55.87
17311;BME280;8773;43.300;0.394;2023-03-20T09:20:48;100312.81;;;13.48;55.47
17311;BME280;8773;43.300;0.394;2023-03-20T09:23:17;100311.63;;;13.85;54.25
17311;BME280;8773;43.300;0.394;2023-03-20T09:25:46;100319.72;;;13.93;54.80
17311;BME280;8773;43.300;0.394;2023-03-20T09:28:14;100315.38;;;14.00;53.98
17311;BME280;8773;43.300;0.394;2023-03-20T09:30:42;100317.38;;;13.98;53.74
17311;BME280;8773;43.300;0.394;2023-03-20T09:33:12;100307.66;;;14.05;53.15
17311;BME280;8773;43.300;0.394;2023-03-20T09:35:41;100299.28;;;14.16;52.96
17311;BME280;8773;43.300;0.394;2023-03-20T09:38:09;100293.25;;;14.22;52.70
17311;BME280;8773;43.300;0.394;2023-03-20T09:40:49;100291.50;;;13.89;51.13
17311;BME280;8773;43.300;0.394;2023-03-20T09:43:36;100293.53;;;13.95;52.01
17311;BME280;8773;43.300;0.394;2023-03-20T09:46:21;100273.78;;;14.20;51.89
17311;BME280;8773;43.300;0.394;2023-03-20T09:48:58;100279.16;;;14.36;51.73
17311;BME280;8773;43.300;0.394;2023-03-20T09:51:34;100282.50;;;14.06;51.60
17311;BME280;8773;43.300;0.394;2023-03-20T09:54:05;100286.19;;;14.21;51.20
17311;BME280;8773;43.300;0.394;2023-03-20T09:56:35;100279.16;;;14.45;50.55
17311;BME280;8773;43.300;0.394;2023-03-20T09:59:05;100291.38;;;13.98;50.11
17311;BME280;8773;43.300;0.394;2023-03-20T10:01:41;100286.00;;;13.98;50.04
17311;BME280;8773;43.300;0.394;2023-03-20T10:04:13;100278.59;;;13.92;49.30
17311;BME280;8773;43.300;0.394;2023-03-20T10:06:41;100276.56;;;13.44;50.16
17311;BME280;8773;43.300;0.394;2023-03-20T10:09:14;100279.09;;;13.46;52.20
17311;BME280;8773;43.300;0.394;2023-03-20T10:11:56;100276.44;;;13.96;51.80
17311;BME280;8773;43.300;0.394;2023-03-20T10:14:32;100264.19;;;14.18;50.81
17311;BME280;8773;43.300;0.394;2023-03-20T10:17:10;100270.09;;;14.37;50.34
17311;BME280;8773;43.300;0.394;2023-03-20T10:19:49;100279.06;;;13.80;50.59
17311;BME280;8773;43.300;0.394;2023-03-20T10:22:21;100264.19;;;13.51;52.14
17311;BME280;8773;43.300;0.394;2023-03-20T10:24:56;100268.91;;;14.08;52.77
17311;BME280;8773;43.300;0.394;2023-03-20T10:27:31;100249.94;;;14.01;49.94
17311;BME280;8773;43.300;0.394;2023-03-20T10:30:18;100264.16;;;13.85;51.93
17311;BME280;8773;43.300;0.394;2023-03-20T10:32:50;100250.78;;;14.10;50.93
17311;BME280;8773;43.300;0.394;2023-03-20T10:35:27;100256.34;;;14.40;50.26
17311;BME280;8773;43.300;0.394;2023-03-20T10:38:16;100244.03;;;14.62;49.45
17311;BME280;8773;43.300;0.394;2023-03-20T10:40:46;100254.31;;;14.75;49.05
17311;BME280;8773;43.300;0.394;2023-03-20T10:43:17;100253.97;;;14.94;49.50
17311;BME280;8773;43.300;0.394;2023-03-20T10:45:49;100252.28;;;14.85;50.02
17311;BME280;8773;43.300;0.394;2023-03-20T10:48:23;100255.66;;;14.87;48.32
17311;BME280;8773;43.300;0.394;2023-03-20T10:50:56;100250.28;;;14.55;48.50
17311;BME280;8773;43.300;0.394;2023-03-20T10:53:30;100251.94;;;14.88;48.50
17311;BME280;8773;43.300;0.394;2023-03-20T10:56:02;100248.91;;;14.59;48.95
17311;BME280;8773;43.300;0.394;2023-03-20T10:58:35;100244.22;;;14.93;49.12
17311;BME280;8773;43.300;0.394;2023-03-20T11:01:05;100247.56;;;14.95;47.45
17311;BME280;8773;43.300;0.394;2023-03-20T11:03:34;100245.81;;;15.19;48.11
17311;BME280;8773;43.300;0.394;2023-03-20T11:06:13;100250.72;;;15.46;47.41
17311;BME280;8773;43.300;0.394;2023-03-20T11:08:47;100246.97;;;15.63;47.14
17311;BME280;8773;43.300;0.394;2023-03-20T11:11:22;100242.13;;;15.90;47.08
17311;BME280;8773;43.300;0.394;2023-03-20T11:13:50;100249.31;;;15.97;46.35
17311;BME280;8773;43.300;0.394;2023-03-20T11:16:21;100236.97;;;15.80;46.05
17311;BME280;8773;43.300;0.394;2023-03-20T11:18:51;100234.81;;;15.98;46.42
17311;BME280;8773;43.300;0.394;2023-03-20T11:21:24;100233.81;;;15.77;44.81
17311;BME280;8773;43.300;0.394;2023-03-20T11:23:53;100235.91;;;15.50;45.07
17311;BME280;8773;43.300;0.394;2023-03-20T11:26:33;100225.22;;;15.42;45.20
17311;BME280;8773;43.300;0.394;2023-03-20T11:29:04;100217.59;;;15.46;45.05
17311;BME280;8773;43.300;0.394;2023-03-20T11:31:35;100213.31;;;15.90;45.49
17311;BME280;8773;43.300;0.394;2023-03-20T11:34:17;100211.00;;;16.10;46.46
17311;BME280;8773;43.300;0.394;2023-03-20T11:36:55;100198.44;;;16.25;45.49
17311;BME280;8773;43.300;0.394;2023-03-20T11:39:36;100198.16;;;16.35;44.01
17311;BME280;8773;43.300;0.394;2023-03-20T11:42:21;100193.09;;;15.94;45.95
17311;BME280;8773;43.300;0.394;2023-03-20T11:44:56;100182.56;;;16.08;43.20
17311;BME280;8773;43.300;0.394;2023-03-20T11:47:26;100182.00;;;15.66;44.09
17311;BME280;8773;43.300;0.394;2023-03-20T11:49:56;100189.81;;;15.53;43.34
17311;BME280;8773;43.300;0.394;2023-03-20T11:52:28;100183.31;;;15.00;44.00
17311;BME280;8773;43.300;0.394;2023-03-20T11:55:00;100183.09;;;15.18;44.03
17311;BME280;8773;43.300;0.394;2023-03-20T11:57:34;100170.03;;;15.77;43.52
17311;BME280;8773;43.300;0.394;2023-03-20T12:00:06;100166.72;;;15.90;43.80
17311;BME280;8773;43.300;0.394;2023-03-20T12:02:43;100158.63;;;16.13;44.25
17311;BME280;8773;43.300;0.394;2023-03-20T12:05:30;100152.00;;;16.53;43.29
17311;BME280;8773;43.300;0.394;2023-03-20T12:08:05;100145.84;;;16.29;43.09
17311;BME280;8773;43.300;0.394;2023-03-20T12:10:40;100148.25;;;16.24;44.00
17311;BME280;8773;43.300;0.394;2023-03-20T12:13:13;100144.72;;;16.38;41.38
17311;BME280;8773;43.300;0.394;2023-03-20T12:15:45;100147.59;;;16.37;41.19
17311;BME280;8773;43.300;0.394;2023-03-20T12:18:21;100137.16;;;16.57;41.96
17311;BME280;8773;43.300;0.394;2023-03-20T12:21:00;100131.75;;;17.16;43.50
17311;BME280;8773;43.300;0.394;2023-03-20T12:23:34;100131.69;;;16.80;41.28
17311;BME280;8773;43.300;0.394;2023-03-20T12:26:07;100122.09;;;16.77;42.19
17311;BME280;8773;43.300;0.394;2023-03-20T12:28:43;100114.00;;;17.07;41.61
17311;BME280;8773;43.300;0.394;2023-03-20T12:31:21;100109.16;;;17.38;39.98
17311;BME280;8773;43.300;0.394;2023-03-20T12:33:54;100103.91;;;17.51;38.57
17311;BME280;8773;43.300;0.394;2023-03-20T12:36:28;100106.44;;;17.53;38.15
17311;BME280;8773;43.300;0.394;2023-03-20T12:39:01;100110.84;;;16.74;39.66
17311;BME280;8773;43.300;0.394;2023-03-20T12:41:38;100108.50;;;17.00;40.73
17311;BME280;8773;43.300;0.394;2023-03-20T12:44:35;100094.72;;;17.46;39.37
17311;BME280;8773;43.300;0.394;2023-03-20T12:47:32;100089.38;;;16.80;40.21
17311;BME280;8773;43.300;0.394;2023-03-20T12:50:12;100091.41;;;16.49;40.58
17311;BME280;8773;43.300;0.394;2023-03-20T12:52:50;100075.88;;;16.95;41.49
17311;BME280;8773;43.300;0.394;2023-03-20T12:55:37;100079.00;;;17.13;41.02
17311;BME280;8773;43.300;0.394;2023-03-20T12:58:16;100072.44;;;17.22;40.72
17311;BME280;8773;43.300;0.394;2023-03-20T13:00:52;100073.78;;;17.69;40.21
17311;BME280;8773;43.300;0.394;2023-03-20T13:03:35;100066.50;;;17.91;40.27
17311;BME280;8773;43.300;0.394;2023-03-20T13:06:12;100069.47;;;17.53;38.91
17311;BME280;8773;43.300;0.394;2023-03-20T13:08:51;100063.34;;;17.66;40.44
17311;BME280;8773;43.300;0.394;2023-03-20T13:11:34;100053.19;;;17.89;39.19
17311;BME280;8773;43.300;0.394;2023-03-20T13:14:11;100050.53;;;18.24;39.21
17311;BME280;8773;43.300;0.394;2023-03-20T13:16:45;100052.38;;;18.23;38.87
17311;BME280;8773;43.300;0.394;2023-03-20T13:19:23;100040.91;;;18.49;37.75
17311;BME280;8773;43.300;0.394;2023-03-20T13:21:57;100042.47;;;18.65;37.15
17311;BME280;8773;43.300;0.394;2023-03-20T13:24:35;100036.25;;;18.71;37.46
17311;BME280;8773;43.300;0.394;2023-03-20T13:27:15;100036.94;;;18.86;37.82
17311;BME280;8773;43.300;0.394;2023-03-20T13:29:51;100033.84;;;19.02;38.12
17311;BME280;8773;43.300;0.394;2023-03-20T13:32:35;100025.16;;;19.14;37.50
17311;BME280;8773;43.300;0.394;2023-03-20T13:35:23;100014.72;;;19.11;36.54
17311;BME280;8773;43.300;0.394;2023-03-20T13:37:57;100016.47;;;18.29;36.46
17311;BME280;8773;43.300;0.394;2023-03-20T13:40:28;100020.81;;;17.96;36.72